sensor_id;sensor_type;location;lat;lon;timestamp;temperature;humidity
17797;DHT22;55596;53.554;9.916;2023-02-21T00:00:14;8.70;99.90
17797;DHT22;55596;53.554;9.916;2023-02-21T00:02:58;8.80;99.90
17797;DHT22;55596;53.554;9.916;2023-02-21T00:05:42;8.70;99.90
17797;DHT22;55596;53.554;9.916;2023-02-21T00:08:26;8.70;99.90
17797;DHT22;55596;53.554;9.916;2023-02-21T00:11:11;8.70;99.90
17797;DHT22;55596;53.554;9.916;2023-02-21T00:13:57;8.70;99.90
17797;DHT22;55596;53.554;9.916;2023-02-21T00:16:41;8.70;99.90
17797;DHT22;55596;53.554;9.916;2023-02-21T00:19:25;8.70;99.90
17797;DHT22;55596;53.554;9.916;2023-02-21T00:22:09;8.60;99.90
17797;DHT22;55596;53.554;9.916;2023-02-21T00:24:53;8.70;99.90
17797;DHT22;55596;53.554;9.916;2023-02-21T00:27:37;8.60;99.90
17797;DHT22;55596;53.554;9.916;2023-02-21T00:30:23;8.60;99.90
17797;DHT22;55596;53.554;9.916;2023-02-21T00:33:07;8.60;99.90
17797;DHT22;55596;53.554;9.916;2023-02-21T00:35:51;8.60;99.90
17797;DHT22;55596;53.554;9.916;2023-02-21T00:38:36;8.60;99.90
17797;DHT22;55596;53.554;9.916;2023-02-21T00:41:21;8.60;99.90
17797;DHT22;55596;53.554;9.916;2023-02-21T00:44:05;8.60;99.90
17797;DHT22;55596;53.554;9.916;2023-02-21T00:46:51;8.60;99.90
17797;DHT22;55596;53.554;9.916;2023-02-21T00:49:35;8.50;99.90
17797;DHT22;55596;53.554;9.916;2023-02-21T00:52:19;8.50;99.90
17797;DHT22;55596;53.554;9.916;2023-02-21T00:55:04;8.60;99.90
17797;DHT22;55596;53.554;9.916;2023-02-21T00:57:48;8.50;99.90
17797;DHT22;55596;53.554;9.916;2023-02-21T01:00:32;8.60;99.90
17797;DHT22;55596;53.554;9.916;2023-02-21T01:03:18;8.60;99.90
17797;DHT22;55596;53.554;9.916;2023-02-21T01:06:07;8.50;99.90
17797;DHT22;55596;53.554;9.916;2023-02-21T01:08:51;8.50;99.90
17797;DHT22;55596;53.554;9.916;2023-02-21T01:11:35;8.50;99.90
17797;DHT22;55596;53.554;9.916;2023-02-21T01:14:19;8.40;99.90
17797;DHT22;55596;53.554;9.916;2023-02-21T01:17:03;8.50;99.90
17797;DHT22;55596;53.554;9.916;2023-02-21T01:19:49;8.40;99.90
17797;DHT22;55596;53.554;9.916;2023-02-21T01:22:34;8.40;99.90
17797;DHT22;55596;53.554;9.916;2023-02-21T01:25:18;8.40;99.90
17797;DHT22;55596;53.554;9.916;2023-02-21T01:28:03;8.50;99.90
17797;DHT22;55596;53.554;9.916;2023-02-21T01:30:47;8.50;99.90
17797;DHT22;55596;53.554;9.916;2023-02-21T01:33:35;8.40;99.90
17797;DHT22;55596;53.554;9.916;2023-02-21T01:36:21;8.40;99.90
17797;DHT22;55596;53.554;9.916;2023-02-21T01:39:05;8.40;99.90
17797;DHT22;55596;53.554;9.916;2023-02-21T01:41:49;8.40;99.90
17797;DHT22;55596;53.554;9.916;2023-02-21T01:44:36;8.40;99.90
17797;DHT22;55596;53.554;9.916;2023-02-21T01:47:22;8.40;99.90
17797;DHT22;55596;53.554;9.916;2023-02-21T01:50:10;8.40;99.90
17797;DHT22;55596;53.554;9.916;2023-02-21T01:52:56;8.30;99.90
17797;DHT22;55596;53.554;9.916;2023-02-21T01:55:41;8.30;99.90
17797;DHT22;55596;53.554;9.916;2023-02-21T01:58:28;8.30;99.90
17797;DHT22;55596;53.554;9.916;2023-02-21T02:01:19;8.40;99.90
17797;DHT22;55596;53.554;9.916;2023-02-21T02:04:04;8.30;99.90
17797;DHT22;55596;53.554;9.916;2023-02-21T02:06:48;8.30;99.90
17797;DHT22;55596;53.554;9.916;2023-02-21T02:09:34;8.30;99.90
17797;DHT22;55596;53.554;9.916;2023-02-21T02:15:21;8.30;99.90
17797;DHT22;55596;53.554;9.916;2023-02-21T02:17:59;8.40;99.90
17797;DHT22;55596;53.554;9.916;2023-02-21T02:24:00;8.30;99.90
17797;DHT22;55596;53.554;9.916;2023-02-21T02:27:02;8.30;99.90
17797;DHT22;55596;53.554;9.916;2023-02-21T02:29:49;8.30;99.90
17797;DHT22;55596;53.554;9.916;2023-02-21T02:35:21;8.30;99.90
17797;DHT22;55596;53.554;9.916;2023-02-21T02:37:55;8.30;99.90
17797;DHT22;55596;53.554;9.916;2023-02-21T02:40:27;8.30;99.90
17797;DHT22;55596;53.554;9.916;2023-02-21T02:43:02;8.30;99.90
17797;DHT22;55596;53.554;9.916;2023-02-21T02:45:38;8.30;99.90
17797;DHT22;55596;53.554;9.916;2023-02-21T02:48:14;8.30;99.90
17797;DHT22;55596;53.554;9.916;2023-02-21T02:50:45;8.30;99.90
17797;DHT22;55596;53.554;9.916;2023-02-21T02:53:15;8.20;99.90
17797;DHT22;55596;53.554;9.916;2023-02-21T02:55:47;8.30;99.90
17797;DHT22;55596;53.554;9.916;2023-02-21T02:58:16;8.30;99.90
17797;DHT22;55596;53.554;9.916;2023-02-21T03:00:49;8.20;99.90
17797;DHT22;55596;53.554;9.916;2023-02-21T03:03:34;8.20;99.90
17797;DHT22;55596;53.554;9.916;2023-02-21T03:06:16;8.20;99.90
17797;DHT22;55596;53.554;9.916;2023-02-21T03:08:52;8.30;99.90
17797;DHT22;55596;53.554;9.916;2023-02-21T03:11:24;9.60;99.90
17797;DHT22;55596;53.554;9.916;2023-02-21T03:13:55;8.20;99.90
17797;DHT22;55596;53.554;9.916;2023-02-21T03:16:26;8.20;99.90
17797;DHT22;55596;53.554;9.916;2023-02-21T03:18:57;8.20;99.90
17797;DHT22;55596;53.554;9.916;2023-02-21T03:21:29;8.20;99.90
17797;DHT22;55596;53.554;9.916;2023-02-21T03:24:00;8.20;99.90
17797;DHT22;55596;53.554;9.916;2023-02-21T03:26:32;8.20;99.90
17797;DHT22;55596;53.554;9.916;2023-02-21T03:29:01;8.20;99.90
17797;DHT22;55596;53.554;9.916;2023-02-21T03:31:33;8.20;99.90
17797;DHT22;55596;53.554;9.916;2023-02-21T03:34:00;8.10;99.90
17797;DHT22;55596;53.554;9.916;2023-02-21T03:36:30;8.10;99.90
17797;DHT22;55596;53.554;9.916;2023-02-21T03:38:57;8.10;99.90
17797;DHT22;55596;53.554;9.916;2023-02-21T03:41:24;8.10;99.90
17797;DHT22;55596;53.554;9.916;2023-02-21T03:43:51;8.20;99.90
17797;DHT22;55596;53.554;9.916;2023-02-21T03:46:17;8.10;99.90
17797;DHT22;55596;53.554;9.916;2023-02-21T03:48:44;8.10;99.90
17797;DHT22;55596;53.554;9.916;2023-02-21T03:51:11;8.10;99.90
17797;DHT22;55596;53.554;9.916;2023-02-21T03:53:39;8.10;99.90
17797;DHT22;55596;53.554;9.916;2023-02-21T03:56:06;8.10;99.90
17797;DHT22;55596;53.554;9.916;2023-02-21T03:58:33;8.10;99.90
17797;DHT22;55596;53.554;9.916;2023-02-21T04:01:00;8.10;99.90
17797;DHT22;55596;53.554;9.916;2023-02-21T04:03:28;8.10;99.90
17797;DHT22;55596;53.554;9.916;2023-02-21T04:05:54;8.10;99.90
17797;DHT22;55596;53.554;9.916;2023-02-21T04:08:21;8.00;99.90
17797;DHT22;55596;53.554;9.916;2023-02-21T04:10:49;8.00;99.90
17797;DHT22;55596;53.554;9.916;2023-02-21T04:13:16;8.00;99.90
17797;DHT22;55596;53.554;9.916;2023-02-21T04:15:44;8.00;99.90
17797;DHT22;55596;53.554;9.916;2023-02-21T04:18:11;8.00;99.90
17797;DHT22;55596;53.554;9.916;2023-02-21T04:20:38;8.00;99.90
17797;DHT22;55596;53.554;9.916;2023-02-21T04:23:04;8.00;99.90
17797;DHT22;55596;53.554;9.916;2023-02-21T04:25:31;8.00;99.90
17797;DHT22;55596;53.554;9.916;2023-02-21T04:27:59;8.00;99.90
17797;DHT22;55596;53.554;9.916;2023-02-21T04:30:26;8.00;99.90
17797;DHT22;55596;53.554;9.916;2023-02-21T04:32:53;8.00;99.90
17797;DHT22;55596;53.554;9.916;2023-02-21T04:35:20;8.00;99.90
17797;DHT22;55596;53.554;9.916;2023-02-21T04:37:46;7.90;99.90
17797;DHT22;55596;53.554;9.916;2023-02-21T04:40:13;7.80;99.90
17797;DHT22;55596;53.554;9.916;2023-02-21T04:42:40;7.70;99.90
17797;DHT22;55596;53.554;9.916;2023-02-21T04:45:09;7.60;99.90
17797;DHT22;55596;53.554;9.916;2023-02-21T04:47:35;7.40;99.90
17797;DHT22;55596;53.554;9.916;2023-02-21T04:50:02;7.30;99.90
17797;DHT22;55596;53.554;9.916;2023-02-21T04:52:29;7.10;99.90
17797;DHT22;55596;53.554;9.916;2023-02-21T04:54:56;7.10;99.90
17797;DHT22;55596;53.554;9.916;2023-02-21T04:57:23;7.10;99.90
17797;DHT22;55596;53.554;9.916;2023-02-21T04:59:56;5.90;99.90
17797;DHT22;55596;53.554;9.916;2023-02-21T05:02:25;7.00;99.90
17797;DHT22;55596;53.554;9.916;2023-02-21T05:04:52;7.00;99.90
17797;DHT22;55596;53.554;9.916;2023-02-21T05:07:19;7.00;99.90
17797;DHT22;55596;53.554;9.916;2023-02-21T05:09:45;6.90;99.90
17797;DHT22;55596;53.554;9.916;2023-02-21T05:12:12;7.00;99.90
17797;DHT22;55596;53.554;9.916;2023-02-21T05:14:40;7.00;99.90
17797;DHT22;55596;53.554;9.916;2023-02-21T05:17:08;7.00;99.90
17797;DHT22;55596;53.554;9.916;2023-02-21T05:19:36;7.00;99.90
17797;DHT22;55596;53.554;9.916;2023-02-21T05:22:03;7.00;99.90
17797;DHT22;55596;53.554;9.916;2023-02-21T05:24:32;7.10;99.90
17797;DHT22;55596;53.554;9.916;2023-02-21T05:26:59;7.10;99.90
17797;DHT22;55596;53.554;9.916;2023-02-21T05:29:26;7.10;99.90
17797;DHT22;55596;53.554;9.916;2023-02-21T05:31:52;7.10;99.90
17797;DHT22;55596;53.554;9.916;2023-02-21T05:34:19;7.10;99.90
17797;DHT22;55596;53.554;9.916;2023-02-21T05:36:47;7.00;99.90
17797;DHT22;55596;53.554;9.916;2023-02-21T05:39:14;7.00;99.90
17797;DHT22;55596;53.554;9.916;2023-02-21T05:41:46;7.00;99.90
17797;DHT22;55596;53.554;9.916;2023-02-21T05:44:13;7.00;99.90
17797;DHT22;55596;53.554;9.916;2023-02-21T05:46:40;7.00;99.90
17797;DHT22;55596;53.554;9.916;2023-02-21T05:49:07;6.90;99.90
17797;DHT22;55596;53.554;9.916;2023-02-21T05:51:35;7.00;99.90
17797;DHT22;55596;53.554;9.916;2023-02-21T05:54:04;6.80;99.90
17797;DHT22;55596;53.554;9.916;2023-02-21T05:56:36;6.90;99.90
17797;DHT22;55596;53.554;9.916;2023-02-21T05:59:03;6.90;99.90
17797;DHT22;55596;53.554;9.916;2023-02-21T06:01:30;6.90;99.90
17797;DHT22;55596;53.554;9.916;2023-02-21T06:03:57;6.90;99.90
17797;DHT22;55596;53.554;9.916;2023-02-21T06:06:24;6.90;99.90
17797;DHT22;55596;53.554;9.916;2023-02-21T06:08:51;6.80;99.90
17797;DHT22;55596;53.554;9.916;2023-02-21T06:11:24;6.90;99.90
17797;DHT22;55596;53.554;9.916;2023-02-21T06:13:52;6.90;99.90
17797;DHT22;55596;53.554;9.916;2023-02-21T06:16:19;6.90;99.90
17797;DHT22;55596;53.554;9.916;2023-02-21T06:18:49;7.00;99.90
17797;DHT22;55596;53.554;9.916;2023-02-21T06:21:16;7.00;99.90
17797;DHT22;55596;53.554;9.916;2023-02-21T06:23:43;7.00;99.90
17797;DHT22;55596;53.554;9.916;2023-02-21T06:26:10;7.00;99.90
17797;DHT22;55596;53.554;9.916;2023-02-21T06:28:39;7.00;99.90
17797;DHT22;55596;53.554;9.916;2023-02-21T06:31:06;7.00;99.90
17797;DHT22;55596;53.554;9.916;2023-02-21T06:33:33;7.00;99.90
17797;DHT22;55596;53.554;9.916;2023-02-21T06:36:03;7.10;99.90
17797;DHT22;55596;53.554;9.916;2023-02-21T06:38:31;7.20;99.90
17797;DHT22;55596;53.554;9.916;2023-02-21T06:40:57;7.10;99.90
17797;DHT22;55596;53.554;9.916;2023-02-21T06:43:24;7.20;99.90
17797;DHT22;55596;53.554;9.916;2023-02-21T06:45:52;7.10;99.90
17797;DHT22;55596;53.554;9.916;2023-02-21T06:48:19;7.10;99.90
17797;DHT22;55596;53.554;9.916;2023-02-21T06:50:46;7.10;99.90
17797;DHT22;55596;53.554;9.916;2023-02-21T06:53:13;7.10;99.90
17797;DHT22;55596;53.554;9.916;2023-02-21T06:55:40;8.60;99.90
17797;DHT22;55596;53.554;9.916;2023-02-21T06:58:07;7.10;99.90
17797;DHT22;55596;53.554;9.916;2023-02-21T07:00:35;7.10;99.90
17797;DHT22;55596;53.554;9.916;2023-02-21T07:03:03;7.10;99.90
17797;DHT22;55596;53.554;9.916;2023-02-21T07:05:30;7.10;99.90
17797;DHT22;55596;53.554;9.916;2023-02-21T07:07:59;7.20;99.90
17797;DHT22;55596;53.554;9.916;2023-02-21T07:10:26;7.20;99.90
17797;DHT22;55596;53.554;9.916;2023-02-21T07:12:53;7.20;99.90
17797;DHT22;55596;53.554;9.916;2023-02-21T07:15:20;8.80;99.90
17797;DHT22;55596;53.554;9.916;2023-02-21T07:17:47;7.20;99.90
17797;DHT22;55596;53.554;9.916;2023-02-21T07:20:15;7.20;99.90
17797;DHT22;55596;53.554;9.916;2023-02-21T07:22:42;7.20;99.90
17797;DHT22;55596;53.554;9.916;2023-02-21T07:25:13;7.20;99.90
17797;DHT22;55596;53.554;9.916;2023-02-21T07:27:40;7.20;99.90
17797;DHT22;55596;53.554;9.916;2023-02-21T07:30:08;7.20;99.90
17797;DHT22;55596;53.554;9.916;2023-02-21T07:32:35;7.30;99.90
17797;DHT22;55596;53.554;9.916;2023-02-21T07:35:02;7.30;99.90
17797;DHT22;55596;53.554;9.916;2023-02-21T07:37:30;7.30;99.90
17797;DHT22;55596;53.554;9.916;2023-02-21T07:39:57;7.30;99.90
17797;DHT22;55596;53.554;9.916;2023-02-21T07:42:24;7.40;99.90
17797;DHT22;55596;53.554;9.916;2023-02-21T07:44:54;7.50;99.90
17797;DHT22;55596;53.554;9.916;2023-02-21T07:47:21;7.50;99.90
17797;DHT22;55596;53.554;9.916;2023-02-21T07:49:48;7.60;99.90
17797;DHT22;55596;53.554;9.916;2023-02-21T07:52:16;7.60;99.90
17797;DHT22;55596;53.554;9.916;2023-02-21T07:54:44;7.70;99.90
17797;DHT22;55596;53.554;9.916;2023-02-21T07:57:11;7.60;99.90
17797;DHT22;55596;53.554;9.916;2023-02-21T07:59:38;7.50;99.90
17797;DHT22;55596;53.554;9.916;2023-02-21T08:02:06;7.70;99.90
17797;DHT22;55596;53.554;9.916;2023-02-21T08:04:32;7.50;99.90
17797;DHT22;55596;53.554;9.916;2023-02-21T08:07:00;7.50;99.90
17797;DHT22;55596;53.554;9.916;2023-02-21T08:09:27;7.60;99.90
17797;DHT22;55596;53.554;9.916;2023-02-21T08:11:55;7.60;99.90
17797;DHT22;55596;53.554;9.916;2023-02-21T08:14:22;7.60;99.90
17797;DHT22;55596;53.554;9.916;2023-02-21T08:16:49;7.70;99.90
17797;DHT22;55596;53.554;9.916;2023-02-21T08:19:16;7.80;99.90
17797;DHT22;55596;53.554;9.916;2023-02-21T08:21:43;7.90;99.90
17797;DHT22;55596;53.554;9.916;2023-02-21T08:24:11;8.00;99.90
17797;DHT22;55596;53.554;9.916;2023-02-21T08:26:38;8.00;99.90
17797;DHT22;55596;53.554;9.916;2023-02-21T08:29:08;8.00;99.90
17797;DHT22;55596;53.554;9.916;2023-02-21T08:31:34;8.10;99.90
17797;DHT22;55596;53.554;9.916;2023-02-21T08:34:01;8.10;99.90
17797;DHT22;55596;53.554;9.916;2023-02-21T08:36:30;8.20;99.90
17797;DHT22;55596;53.554;9.916;2023-02-21T08:38:57;8.40;99.90
17797;DHT22;55596;53.554;9.916;2023-02-21T08:41:24;8.20;99.90
17797;DHT22;55596;53.554;9.916;2023-02-21T08:43:51;8.20;99.90
17797;DHT22;55596;53.554;9.916;2023-02-21T08:46:19;8.30;99.90
17797;DHT22;55596;53.554;9.916;2023-02-21T08:48:46;8.30;99.90
17797;DHT22;55596;53.554;9.916;2023-02-21T08:51:12;8.40;99.90
17797;DHT22;55596;53.554;9.916;2023-02-21T08:53:39;8.50;99.90
17797;DHT22;55596;53.554;9.916;2023-02-21T08:56:06;8.60;99.90
17797;DHT22;55596;53.554;9.916;2023-02-21T08:58:33;8.70;99.90
17797;DHT22;55596;53.554;9.916;2023-02-21T09:01:00;8.90;99.90
17797;DHT22;55596;53.554;9.916;2023-02-21T09:03:28;8.90;99.90
17797;DHT22;55596;53.554;9.916;2023-02-21T09:05:55;9.00;99.90
17797;DHT22;55596;53.554;9.916;2023-02-21T09:08:21;9.10;99.90
17797;DHT22;55596;53.554;9.916;2023-02-21T09:10:51;9.20;99.90
17797;DHT22;55596;53.554;9.916;2023-02-21T09:13:19;9.30;99.90
17797;DHT22;55596;53.554;9.916;2023-02-21T09:15:46;9.20;99.90
17797;DHT22;55596;53.554;9.916;2023-02-21T09:18:13;9.40;99.90
17797;DHT22;55596;53.554;9.916;2023-02-21T09:20:41;9.50;99.90
17797;DHT22;55596;53.554;9.916;2023-02-21T09:23:08;9.60;99.90
17797;DHT22;55596;53.554;9.916;2023-02-21T09:25:35;9.60;99.90
17797;DHT22;55596;53.554;9.916;2023-02-21T09:28:02;9.70;99.90
17797;DHT22;55596;53.554;9.916;2023-02-21T09:30:29;9.70;99.90
17797;DHT22;55596;53.554;9.916;2023-02-21T09:32:56;9.70;99.90
17797;DHT22;55596;53.554;9.916;2023-02-21T09:35:23;9.70;99.90
17797;DHT22;55596;53.554;9.916;2023-02-21T09:37:51;9.70;99.90
17797;DHT22;55596;53.554;9.916;2023-02-21T09:40:26;9.70;99.90
17797;DHT22;55596;53.554;9.916;2023-02-21T09:42:56;9.70;99.90
17797;DHT22;55596;53.554;9.916;2023-02-21T09:45:25;9.70;99.90
17797;DHT22;55596;53.554;9.916;2023-02-21T09:47:56;9.90;99.90
17797;DHT22;55596;53.554;9.916;2023-02-21T09:50:26;9.90;99.90
17797;DHT22;55596;53.554;9.916;2023-02-21T09:52:57;9.90;99.90
17797;DHT22;55596;53.554;9.916;2023-02-21T09:55:28;9.80;99.90
17797;DHT22;55596;53.554;9.916;2023-02-21T09:57:56;9.90;99.90
17797;DHT22;55596;53.554;9.916;2023-02-21T10:00:26;10.00;99.90
17797;DHT22;55596;53.554;9.916;2023-02-21T10:03:00;10.10;99.90
17797;DHT22;55596;53.554;9.916;2023-02-21T10:05:37;10.10;99.90
17797;DHT22;55596;53.554;9.916;2023-02-21T10:08:11;10.20;99.90
17797;DHT22;55596;53.554;9.916;2023-02-21T10:10:43;10.20;99.90
17797;DHT22;55596;53.554;9.916;2023-02-21T10:13:27;10.30;99.90
17797;DHT22;55596;53.554;9.916;2023-02-21T10:16:00;10.40;99.90
17797;DHT22;55596;53.554;9.916;2023-02-21T10:18:35;10.70;99.90
17797;DHT22;55596;53.554;9.916;2023-02-21T10:21:11;10.50;99.90
17797;DHT22;55596;53.554;9.916;2023-02-21T10:23:43;10.40;99.90
17797;DHT22;55596;53.554;9.916;2023-02-21T10:26:13;10.40;99.90
17797;DHT22;55596;53.554;9.916;2023-02-21T10:28:42;10.50;99.90
17797;DHT22;55596;53.554;9.916;2023-02-21T10:31:13;10.40;99.90
17797;DHT22;55596;53.554;9.916;2023-02-21T10:33:42;10.30;99.90
17797;DHT22;55596;53.554;9.916;2023-02-21T10:36:13;10.40;99.90
17797;DHT22;55596;53.554;9.916;2023-02-21T10:38:52;10.70;99.90
17797;DHT22;55596;53.554;9.916;2023-02-21T10:41:20;11.00;99.90
17797;DHT22;55596;53.554;9.916;2023-02-21T10:43:51;11.10;99.90
17797;DHT22;55596;53.554;9.916;2023-02-21T10:46:23;11.20;99.90
17797;DHT22;55596;53.554;9.916;2023-02-21T10:48:55;11.00;99.90
17797;DHT22;55596;53.554;9.916;2023-02-21T10:51:30;10.80;99.90
17797;DHT22;55596;53.554;9.916;2023-02-21T10:54:17;10.80;99.90
17797;DHT22;55596;53.554;9.916;2023-02-21T10:56:46;11.10;99.90
17797;DHT22;55596;53.554;9.916;2023-02-21T10:59:20;11.20;99.90
17797;DHT22;55596;53.554;9.916;2023-02-21T11:01:48;11.60;99.90
17797;DHT22;55596;53.554;9.916;2023-02-21T11:04:24;11.50;99.90
17797;DHT22;55596;53.554;9.916;2023-02-21T11:06:54;11.60;99.90
17797;DHT22;55596;53.554;9.916;2023-02-21T11:09:30;11.50;99.90
17797;DHT22;55596;53.554;9.916;2023-02-21T11:12:03;11.50;99.90
17797;DHT22;55596;53.554;9.916;2023-02-21T11:14:31;11.60;99.90
17797;DHT22;55596;53.554;9.916;2023-02-21T11:17:20;11.60;99.90
17797;DHT22;55596;53.554;9.916;2023-02-21T11:19:50;11.40;99.90
17797;DHT22;55596;53.554;9.916;2023-02-21T11:22:20;11.30;99.90
17797;DHT22;55596;53.554;9.916;2023-02-21T11:24:57;11.20;99.90
17797;DHT22;55596;53.554;9.916;2023-02-21T11:27:25;11.00;99.90
17797;DHT22;55596;53.554;9.916;2023-02-21T11:29:53;10.90;99.90
17797;DHT22;55596;53.554;9.916;2023-02-21T11:32:28;10.80;99.90
17797;DHT22;55596;53.554;9.916;2023-02-21T11:35:07;10.90;99.90
17797;DHT22;55596;53.554;9.916;2023-02-21T11:37:49;11.10;99.90
17797;DHT22;55596;53.554;9.916;2023-02-21T11:40:30;11.20;99.90
17797;DHT22;55596;53.554;9.916;2023-02-21T11:43:11;11.30;99.90
17797;DHT22;55596;53.554;9.916;2023-02-21T11:45:41;11.10;99.90
17797;DHT22;55596;53.554;9.916;2023-02-21T11:48:12;11.70;99.90
17797;DHT22;55596;53.554;9.916;2023-02-21T11:50:43;11.10;99.90
17797;DHT22;55596;53.554;9.916;2023-02-21T11:53:19;11.00;99.90
17797;DHT22;55596;53.554;9.916;2023-02-21T11:55:54;10.80;99.90
17797;DHT22;55596;53.554;9.916;2023-02-21T11:58:26;10.80;99.90
17797;DHT22;55596;53.554;9.916;2023-02-21T12:00:59;11.00;99.90
17797;DHT22;55596;53.554;9.916;2023-02-21T12:03:59;10.80;99.90
17797;DHT22;55596;53.554;9.916;2023-02-21T12:06:34;10.70;99.90
17797;DHT22;55596;53.554;9.916;2023-02-21T12:09:07;10.70;99.90
17797;DHT22;55596;53.554;9.916;2023-02-21T12:11:45;10.60;99.90
17797;DHT22;55596;53.554;9.916;2023-02-21T12:14:38;10.50;99.90
17797;DHT22;55596;53.554;9.916;2023-02-21T12:17:18;10.40;99.90
17797;DHT22;55596;53.554;9.916;2023-02-21T12:23:03;10.20;99.90
17797;DHT22;55596;53.554;9.916;2023-02-21T12:25:39;10.40;99.90
17797;DHT22;55596;53.554;9.916;2023-02-21T12:28:17;10.40;99.90
17797;DHT22;55596;53.554;9.916;2023-02-21T12:30:57;10.40;99.90
17797;DHT22;55596;53.554;9.916;2023-02-21T12:33:37;10.50;99.90
17797;DHT22;55596;53.554;9.916;2023-02-21T12:36:19;10.50;99.90
17797;DHT22;55596;53.554;9.916;2023-02-21T12:38:53;10.50;99.90
17797;DHT22;55596;53.554;9.916;2023-02-21T12:44:23;10.60;99.90
17797;DHT22;55596;53.554;9.916;2023-02-21T12:46:56;10.70;99.90
17797;DHT22;55596;53.554;9.916;2023-02-21T12:49:27;11.00;99.90
17797;DHT22;55596;53.554;9.916;2023-02-21T12:52:07;10.90;99.90
17797;DHT22;55596;53.554;9.916;2023-02-21T12:54:44;10.80;99.90
17797;DHT22;55596;53.554;9.916;2023-02-21T12:57:14;10.70;99.90
17797;DHT22;55596;53.554;9.916;2023-02-21T12:59:53;10.80;99.90
17797;DHT22;55596;53.554;9.916;2023-02-21T13:02:26;10.80;99.90
17797;DHT22;55596;53.554;9.916;2023-02-21T13:05:02;11.00;99.90
17797;DHT22;55596;53.554;9.916;2023-02-21T13:07:35;11.30;99.90
17797;DHT22;55596;53.554;9.916;2023-02-21T13:10:05;11.30;99.90
17797;DHT22;55596;53.554;9.916;2023-02-21T13:12:39;11.60;99.90
17797;DHT22;55596;53.554;9.916;2023-02-21T13:15:17;11.70;99.90
17797;DHT22;55596;53.554;9.916;2023-02-21T13:17:51;11.80;99.90
17797;DHT22;55596;53.554;9.916;2023-02-21T13:20:21;11.90;99.90
17797;DHT22;55596;53.554;9.916;2023-02-21T13:26:39;11.90;99.90
17797;DHT22;55596;53.554;9.916;2023-02-21T13:29:16;11.70;99.90
17797;DHT22;55596;53.554;9.916;2023-02-21T13:31:46;11.40;99.90
17797;DHT22;55596;53.554;9.916;2023-02-21T13:34:18;11.30;99.90
17797;DHT22;55596;53.554;9.916;2023-02-21T13:36:48;11.10;99.90
17797;DHT22;55596;53.554;9.916;2023-02-21T13:39:17;11.10;99.90
17797;DHT22;55596;53.554;9.916;2023-02-21T13:41:48;11.40;99.90
17797;DHT22;55596;53.554;9.916;2023-02-21T13:44:21;11.40;99.90
17797;DHT22;55596;53.554;9.916;2023-02-21T13:47:03;11.80;99.90
17797;DHT22;55596;53.554;9.916;2023-02-21T13:49:51;11.40;99.90
17797;DHT22;55596;53.554;9.916;2023-02-21T13:55:26;10.40;99.90
17797;DHT22;55596;53.554;9.916;2023-02-21T13:58:27;10.10;99.90
17797;DHT22;55596;53.554;9.916;2023-02-21T14:00:56;10.20;99.90
17797;DHT22;55596;53.554;9.916;2023-02-21T14:03:40;10.00;99.90
17797;DHT22;55596;53.554;9.916;2023-02-21T14:06:34;10.10;99.90
17797;DHT22;55596;53.554;9.916;2023-02-21T14:09:10;10.20;99.90
17797;DHT22;55596;53.554;9.916;2023-02-21T14:11:43;10.00;99.90
17797;DHT22;55596;53.554;9.916;2023-02-21T14:14:24;10.20;99.90
17797;DHT22;55596;53.554;9.916;2023-02-21T14:16:57;9.90;99.90
17797;DHT22;55596;53.554;9.916;2023-02-21T14:19:33;9.90;99.90
17797;DHT22;55596;53.554;9.916;2023-02-21T14:22:08;9.90;99.90
17797;DHT22;55596;53.554;9.916;2023-02-21T14:24:40;9.50;99.90
17797;DHT22;55596;53.554;9.916;2023-02-21T14:27:36;9.50;99.90
17797;DHT22;55596;53.554;9.916;2023-02-21T14:30:23;9.70;99.90
17797;DHT22;55596;53.554;9.916;2023-02-21T14:32:52;10.10;99.90
17797;DHT22;55596;53.554;9.916;2023-02-21T14:35:28;10.70;99.90
17797;DHT22;55596;53.554;9.916;2023-02-21T14:37:58;9.70;99.90
17797;DHT22;55596;53.554;9.916;2023-02-21T14:40:32;9.90;99.90
17797;DHT22;55596;53.554;9.916;2023-02-21T14:46:11;9.90;99.90
17797;DHT22;55596;53.554;9.916;2023-02-21T14:49:06;9.80;99.90
17797;DHT22;55596;53.554;9.916;2023-02-21T14:52:10;9.70;99.90
17797;DHT22;55596;53.554;9.916;2023-02-21T15:00:54;9.60;99.90
17797;DHT22;55596;53.554;9.916;2023-02-21T15:03:29;9.70;99.90
17797;DHT22;55596;53.554;9.916;2023-02-21T15:06:04;9.60;99.90
17797;DHT22;55596;53.554;9.916;2023-02-21T15:08:41;9.40;99.90
17797;DHT22;55596;53.554;9.916;2023-02-21T15:11:22;9.40;99.90
17797;DHT22;55596;53.554;9.916;2023-02-21T15:14:14;10.40;99.90
17797;DHT22;55596;53.554;9.916;2023-02-21T15:16:48;9.40;99.90
17797;DHT22;55596;53.554;9.916;2023-02-21T15:19:21;10.40;99.90
17797;DHT22;55596;53.554;9.916;2023-02-21T15:22:05;9.40;99.90
17797;DHT22;55596;53.554;9.916;2023-02-21T15:24:34;9.50;99.90
17797;DHT22;55596;53.554;9.916;2023-02-21T15:27:10;9.30;99.90
17797;DHT22;55596;53.554;9.916;2023-02-21T15:29:38;9.50;99.90
17797;DHT22;55596;53.554;9.916;2023-02-21T15:32:05;9.40;99.90
17797;DHT22;55596;53.554;9.916;2023-02-21T15:34:42;9.40;99.90
17797;DHT22;55596;53.554;9.916;2023-02-21T15:37:16;9.40;99.90
17797;DHT22;55596;53.554;9.916;2023-02-21T15:39:49;9.30;99.90
17797;DHT22;55596;53.554;9.916;2023-02-21T15:42:17;9.40;99.90
17797;DHT22;55596;53.554;9.916;2023-02-21T15:44:47;9.30;99.90
17797;DHT22;55596;53.554;9.916;2023-02-21T15:47:18;9.40;99.90
17797;DHT22;55596;53.554;9.916;2023-02-21T15:50:00;9.30;99.90
17797;DHT22;55596;53.554;9.916;2023-02-21T15:52:35;9.10;99.90
17797;DHT22;55596;53.554;9.916;2023-02-21T15:55:15;8.90;99.90
17797;DHT22;55596;53.554;9.916;2023-02-21T15:57:58;8.70;99.90
17797;DHT22;55596;53.554;9.916;2023-02-21T16:00:27;8.70;99.90
17797;DHT22;55596;53.554;9.916;2023-02-21T16:03:25;8.40;99.90
17797;DHT22;55596;53.554;9.916;2023-02-21T16:05:53;8.30;99.90
17797;DHT22;55596;53.554;9.916;2023-02-21T16:08:21;8.30;99.90
17797;DHT22;55596;53.554;9.916;2023-02-21T16:10:49;8.30;99.90
17797;DHT22;55596;53.554;9.916;2023-02-21T16:13:16;8.30;99.90
17797;DHT22;55596;53.554;9.916;2023-02-21T16:15:44;8.20;99.90
17797;DHT22;55596;53.554;9.916;2023-02-21T16:18:16;8.20;99.90
17797;DHT22;55596;53.554;9.916;2023-02-21T16:20:44;8.00;99.90
17797;DHT22;55596;53.554;9.916;2023-02-21T16:23:23;8.00;99.90
17797;DHT22;55596;53.554;9.916;2023-02-21T16:25:59;7.90;99.90
17797;DHT22;55596;53.554;9.916;2023-02-21T16:28:27;7.80;99.90
17797;DHT22;55596;53.554;9.916;2023-02-21T16:30:55;7.80;99.90
17797;DHT22;55596;53.554;9.916;2023-02-21T16:33:25;7.80;99.90
17797;DHT22;55596;53.554;9.916;2023-02-21T16:35:53;7.80;99.90
17797;DHT22;55596;53.554;9.916;2023-02-21T16:38:21;7.80;99.90
17797;DHT22;55596;53.554;9.916;2023-02-21T16:40:49;7.60;99.90
17797;DHT22;55596;53.554;9.916;2023-02-21T16:43:19;7.80;99.90
17797;DHT22;55596;53.554;9.916;2023-02-21T16:45:47;7.60;99.90
17797;DHT22;55596;53.554;9.916;2023-02-21T16:48:16;7.70;99.90
17797;DHT22;55596;53.554;9.916;2023-02-21T16:50:46;7.60;99.90